Time;durP1;ratioP1;P1;durP2;ratioP2;P2;SDS_P1;SDS_P2;PMS_P1;PMS_P2;Temp;Humidity;BMP_temperature;BMP_pressure;BME280_temperature;BME280_humidity;BME280_pressure;Samples;Min_cycle;Max_cycle;Signal;HPM_P1;HPM_P2
2021/09/01 00:06:33;;;;;;;0.90;0.50;;;;;;;17.09;55.30;101946.44;4141940;29;20049;-73
2021/09/01 00:08:58;;;;;;;0.30;0.30;;;;;;;17.07;55.13;101945.09;4932222;29;20455;-73
2021/09/01 00:11:23;;;;;;;0.28;0.28;;;;;;;17.07;55.34;101942.31;4927154;29;20032;-73
2021/09/01 00:13:49;;;;;;;0.43;0.43;;;;;;;17.07;54.99;101945.91;4931247;29;20035;-73
2021/09/01 00:16:27;;;;;;;0.20;0.20;;;;;;;17.05;55.12;101947.28;4932363;29;20039;-74
2021/09/01 00:18:57;;;;;;;0.20;0.20;;;;;;;17.04;54.99;101942.84;4931339;29;20071;-74
2021/09/01 00:21:23;;;;;;;2.17;0.30;;;;;;;17.04;55.27;101949.22;4909564;29;20114;-72
2021/09/01 00:23:49;;;;;;;0.20;0.20;;;;;;;17.00;55.19;101936.22;4913618;29;20116;-74
2021/09/01 00:26:14;;;;;;;0.98;0.28;;;;;;;16.99;55.29;101935.38;4932739;29;20044;-73
2021/09/01 00:28:39;;;;;;;0.15;0.15;;;;;;;17.00;55.52;101941.75;4897696;29;20048;-73
2021/09/01 00:31:05;;;;;;;0.40;0.30;;;;;;;16.97;55.45;101931.22;4927459;29;20042;-75
2021/09/01 00:33:30;;;;;;;0.60;0.50;;;;;;;16.90;55.38;101932.31;4933350;29;20042;-74
2021/09/01 00:35:56;;;;;;;0.20;0.20;;;;;;;16.96;55.74;101943.38;4931834;29;20031;-74
2021/09/01 00:38:21;;;;;;;0.30;0.20;;;;;;;16.92;55.51;101935.66;4941816;28;20469;-74
2021/09/01 00:40:47;;;;;;;0.30;0.30;;;;;;;16.95;55.84;101948.06;4967452;28;20046;-74
2021/09/01 00:43:12;;;;;;;0.20;0.20;;;;;;;16.96;55.39;101940.63;4957594;28;20433;-75
2021/09/01 00:45:46;;;;;;;0.28;0.28;;;;;;;16.97;55.55;101936.75;4974041;28;20409;-73
2021/09/01 00:48:16;;;;;;;0.35;0.30;;;;;;;16.93;55.33;101931.75;4968119;28;20035;-73
2021/09/01 00:50:41;;;;;;;0.50;0.45;;;;;;;16.95;55.62;101936.19;4972678;28;20023;-74
2021/09/01 00:53:08;;;;;;;0.30;0.30;;;;;;;16.95;55.17;101945.31;4971348;28;20035;-74
2021/09/01 00:55:34;;;;;;;0.82;0.60;;;;;;;16.96;55.24;101937.88;4973366;28;20493;-74
2021/09/01 00:58:00;;;;;;;1.17;0.50;;;;;;;16.95;55.17;101937.00;4970848;28;20026;-73
2021/09/01 01:00:43;;;;;;;0.40;0.30;;;;;;;16.94;55.59;101935.38;4983112;28;20030;-73
2021/09/01 01:03:09;;;;;;;0.43;0.43;;;;;;;16.96;55.56;101940.63;4969226;28;20082;-74
2021/09/01 01:05:34;;;;;;;0.20;0.20;;;;;;;16.96;55.28;101927.63;4964983;28;20034;-74
2021/09/01 01:08:00;;;;;;;0.32;0.30;;;;;;;16.98;55.06;101930.13;4951335;28;20058;-75
2021/09/01 01:10:25;;;;;;;0.28;0.20;;;;;;;17.01;55.09;101935.09;4973210;28;20022;-73
2021/09/01 01:12:51;;;;;;;0.20;0.20;;;;;;;16.97;55.52;101932.06;4961946;28;20027;-75
2021/09/01 01:15:16;;;;;;;0.30;0.13;;;;;;;16.97;55.53;101931.22;4971798;28;20120;-73
2021/09/01 01:17:44;;;;;;;0.10;0.10;;;;;;;16.97;55.36;101926.53;4952563;28;20112;-75
2021/09/01 01:20:09;;;;;;;0.50;0.40;;;;;;;16.93;55.12;101923.47;4965835;28;20046;-74
2021/09/01 01:22:35;;;;;;;0.40;0.30;;;;;;;16.93;55.31;101926.25;4961583;28;20445;-72
2021/09/01 01:25:05;;;;;;;0.32;0.30;;;;;;;16.97;55.46;101931.22;4963841;28;20039;-73
2021/09/01 01:27:42;;;;;;;0.20;0.20;;;;;;;16.98;55.04;101932.88;4969008;28;20025;-75
2021/09/01 01:30:19;;;;;;;0.57;0.55;;;;;;;16.97;55.32;101932.06;4967204;28;20114;-75
2021/09/01 01:32:51;;;;;;;1.00;0.77;;;;;;;16.93;55.33;101929.00;4976243;28;20039;-73
2021/09/01 01:35:30;;;;;;;0.50;0.50;;;;;;;16.96;55.57;101926.81;4982169;28;20035;-74
2021/09/01 01:37:57;;;;;;;0.38;0.30;;;;;;;16.90;55.49;101917.69;4979231;28;20114;-73
2021/09/01 01:40:24;;;;;;;0.68;0.68;;;;;;;16.91;55.24;101928.44;4978113;28;20031;-73
2021/09/01 01:42:51;;;;;;;0.50;0.50;;;;;;;16.92;55.29;101924.59;4968899;28;20053;-73
2021/09/01 01:45:17;;;;;;;2.08;0.70;;;;;;;16.92;55.67;101924.59;4965925;28;20039;-73
2021/09/01 01:47:42;;;;;;;0.50;0.50;;;;;;;16.91;55.48;101922.13;4968200;28;20023;-73
2021/09/01 01:50:08;;;;;;;1.58;0.65;;;;;;;16.91;55.46;101922.13;4968486;28;20030;-73
2021/09/01 01:52:35;;;;;;;1.13;0.75;;;;;;;16.91;55.39;101922.94;4970160;28;20027;-74
2021/09/01 01:55:00;;;;;;;1.27;0.60;;;;;;;16.90;55.36;101926.78;4973625;28;20026;-76
2021/09/01 01:57:25;;;;;;;0.73;0.73;;;;;;;16.91;55.40;101925.69;4970906;28;20081;-74
2021/09/01 01:59:51;;;;;;;0.70;0.70;;;;;;;16.83;55.69;101909.59;4965169;28;20681;-76
2021/09/01 02:02:16;;;;;;;0.50;0.50;;;;;;;16.91;55.74;101922.94;4970148;28;20420;-76
2021/09/01 02:04:42;;;;;;;0.25;0.25;;;;;;;16.86;55.58;101920.09;4952459;28;20553;-74
2021/09/01 02:07:07;;;;;;;1.00;0.50;;;;;;;16.86;55.65;101928.41;4954851;28;20062;-73
2021/09/01 02:09:32;;;;;;;0.63;0.40;;;;;;;16.84;55.83;101927.84;4944975;28;20031;-72
2021/09/01 02:11:58;;;;;;;0.50;0.45;;;;;;;16.81;55.73;101925.63;4933041;28;20146;-73
2021/09/01 02:14:23;;;;;;;1.73;0.57;;;;;;;16.80;56.33;101923.16;4969593;28;20027;-73
2021/09/01 02:16:49;;;;;;;0.40;0.40;;;;;;;16.76;56.03;101920.09;4968112;28;20027;-73
2021/09/01 02:19:14;;;;;;;0.57;0.38;;;;;;;16.73;55.95;101926.16;4960650;28;20448;-73
2021/09/01 02:21:40;;;;;;;0.60;0.47;;;;;;;16.71;56.66;101917.31;4968904;28;20039;-73
2021/09/01 02:24:06;;;;;;;1.20;0.77;;;;;;;16.70;56.48;101919.22;4968306;28;20378;-72
2021/09/01 02:26:32;;;;;;;0.35;0.35;;;;;;;16.67;56.56;101921.72;4966694;28;20138;-74
2021/09/01 02:28:57;;;;;;;0.50;0.50;;;;;;;16.66;56.65;101925.56;4966343;28;20071;-73
2021/09/01 02:31:23;;;;;;;1.45;0.47;;;;;;;16.62;56.43;101922.53;4963564;28;20022;-73
2021/09/01 02:33:48;;;;;;;1.30;1.02;;;;;;;16.64;56.86;101925.03;4951563;28;20377;-73
2021/09/01 02:36:14;;;;;;;0.80;0.60;;;;;;;16.63;56.55;101920.59;4964572;28;20035;-73
2021/09/01 02:38:41;;;;;;;1.02;0.50;;;;;;;16.62;56.88;101925.28;4964958;28;20091;-74
2021/09/01 02:41:08;;;;;;;0.50;0.45;;;;;;;16.63;56.64;101921.44;4966410;28;20039;-74
2021/09/01 02:43:33;;;;;;;1.08;0.55;;;;;;;16.62;56.65;101919.78;4960665;28;20022;-72
2021/09/01 02:45:59;;;;;;;0.70;0.60;;;;;;;16.61;56.68;101914.53;4969631;28;20092;-72
2021/09/01 02:48:24;;;;;;;0.50;0.50;;;;;;;16.58;56.99;101908.41;4967725;28;20039;-72
2021/09/01 02:50:52;;;;;;;0.85;0.40;;;;;;;16.59;56.90;101909.28;4971846;28;20022;-75
2021/09/01 02:53:18;;;;;;;0.40;0.40;;;;;;;16.57;57.20;101909.53;4972548;28;20046;-76
2021/09/01 02:55:43;;;;;;;0.80;0.70;;;;;;;16.58;57.11;101908.41;4967250;28;20031;-75
2021/09/01 02:58:08;;;;;;;0.68;0.65;;;;;;;16.58;57.05;101897.38;4969310;28;20031;-74
2021/09/01 03:00:34;;;;;;;0.68;0.50;;;;;;;16.57;57.25;101900.41;4972580;28;20046;-75
2021/09/01 03:02:59;;;;;;;0.50;0.22;;;;;;;16.56;57.34;101899.59;4963813;28;20035;-74
2021/09/01 03:05:25;;;;;;;0.93;0.93;;;;;;;16.55;57.69;101889.63;4968869;28;20038;-74
2021/09/01 03:07:50;;;;;;;0.68;0.68;;;;;;;16.57;57.68;101900.41;4979863;28;20073;-73
2021/09/01 03:10:16;;;;;;;0.93;0.50;;;;;;;16.56;57.57;101893.25;4990689;28;20114;-73
2021/09/01 03:12:41;;;;;;;0.35;0.30;;;;;;;16.55;57.59;101892.41;4982022;28;20088;-73
2021/09/01 03:15:07;;;;;;;0.38;0.38;;;;;;;16.55;57.59;101886.06;4985311;28;20362;-74
2021/09/01 03:17:32;;;;;;;0.50;0.50;;;;;;;16.52;57.53;101887.41;4970066;28;20499;-73
2021/09/01 03:19:58;;;;;;;0.85;0.85;;;;;;;16.50;57.72;101884.13;4969238;28;20086;-73
2021/09/01 03:22:23;;;;;;;0.95;0.68;;;;;;;16.50;57.76;101884.13;4971768;28;20436;-72
2021/09/01 03:24:48;;;;;;;0.95;0.40;;;;;;;16.48;57.71;101891.81;4968105;28;20122;-73
2021/09/01 03:27:14;;;;;;;0.70;0.45;;;;;;;16.50;57.91;101888.78;4955687;28;20635;-72
2021/09/01 03:29:40;;;;;;;0.63;0.50;;;;;;;16.51;57.72;101891.28;4967485;28;20495;-72
2021/09/01 03:32:05;;;;;;;0.65;0.50;;;;;;;16.50;58.16;101889.63;4988850;28;20053;-74
2021/09/01 03:34:31;;;;;;;0.30;0.20;;;;;;;16.50;58.22;101888.78;4991009;28;20030;-74
2021/09/01 03:36:56;;;;;;;0.90;0.85;;;;;;;16.52;57.98;101892.94;4954926;28;20031;-74
2021/09/01 03:39:22;;;;;;;1.13;0.63;;;;;;;16.53;58.14;101889.09;4969399;28;20041;-73
2021/09/01 03:41:47;;;;;;;0.73;0.57;;;;;;;16.55;58.13;101891.56;4989609;28;20038;-74
2021/09/01 03:44:12;;;;;;;0.73;0.65;;;;;;;16.57;57.72;101879.16;4990253;28;20018;-73
2021/09/01 03:46:38;;;;;;;1.35;0.50;;;;;;;16.57;57.64;101873.66;4974639;28;20750;-75
2021/09/01 03:49:03;;;;;;;0.60;0.60;;;;;;;16.58;57.92;101875.28;4966967;28;20472;-73
2021/09/01 03:51:29;;;;;;;0.80;0.70;;;;;;;16.56;57.63;101871.97;4994731;28;20034;-73
2021/09/01 03:53:54;;;;;;;0.60;0.60;;;;;;;16.60;57.70;101879.72;4987316;28;20027;-73
2021/09/01 03:56:19;;;;;;;1.63;0.70;;;;;;;16.58;57.52;101858.72;4976886;28;20027;-75
2021/09/01 03:58:45;;;;;;;0.45;0.45;;;;;;;16.57;57.47;101870.88;4972511;28;20551;-75
2021/09/01 04:01:10;;;;;;;0.73;0.68;;;;;;;16.56;57.06;101866.44;4989012;28;20435;-74
2021/09/01 04:03:36;;;;;;;0.60;0.60;;;;;;;16.57;57.33;101868.13;4965570;28;20034;-74
2021/09/01 04:06:02;;;;;;;0.93;0.93;;;;;;;16.60;57.07;101865.91;4971436;28;20062;-74
2021/09/01 04:08:28;;;;;;;0.50;0.50;;;;;;;16.62;57.25;101864.53;4944584;28;20381;-75
2021/09/01 04:10:53;;;;;;;0.30;0.30;;;;;;;16.66;57.24;101870.34;4993126;28;20041;-72
2021/09/01 04:13:21;;;;;;;0.75;0.52;;;;;;;16.66;56.45;101879.47;4989590;28;20468;-75
2021/09/01 04:15:46;;;;;;;0.63;0.35;;;;;;;16.67;56.66;101872.00;4970656;28;20026;-73
2021/09/01 04:18:12;;;;;;;0.25;0.25;;;;;;;16.70;56.37;101883.31;4972410;28;20416;-73
2021/09/01 04:20:37;;;;;;;0.30;0.30;;;;;;;16.72;56.32;101880.31;4988339;28;20468;-73
2021/09/01 04:23:03;;;;;;;0.45;0.45;;;;;;;16.73;56.14;101881.94;4991135;28;20466;-74
2021/09/01 04:25:28;;;;;;;1.65;0.30;;;;;;;16.72;56.64;101875.63;4973818;28;20061;-74
2021/09/01 04:27:54;;;;;;;1.85;0.60;;;;;;;16.76;56.16;101881.41;4994182;28;20026;-73
2021/09/01 04:30:19;;;;;;;1.10;0.88;;;;;;;16.76;56.60;101881.41;4958138;28;20034;-73
2021/09/01 04:32:45;;;;;;;2.67;0.82;;;;;;;16.74;56.37;101881.69;4956106;28;20034;-73
2021/09/01 04:35:10;;;;;;;1.23;1.13;;;;;;;16.76;56.91;101892.47;4954298;28;20041;-75
2021/09/01 04:37:36;;;;;;;0.98;0.88;;;;;;;16.72;57.03;101880.31;4985757;28;20460;-76
2021/09/01 04:40:02;;;;;;;0.90;0.80;;;;;;;16.71;57.20;101890.50;4990577;28;20461;-76
2021/09/01 04:42:27;;;;;;;1.83;0.80;;;;;;;16.71;57.09;101884.16;4997173;28;20092;-75
2021/09/01 04:44:53;;;;;;;2.47;0.75;;;;;;;16.66;57.26;101881.38;4995339;28;20435;-75
2021/09/01 04:47:18;;;;;;;0.93;0.63;;;;;;;16.67;57.45;101883.06;4962259;28;20547;-75
2021/09/01 04:49:44;;;;;;;0.82;0.50;;;;;;;16.67;57.08;101883.06;4979120;28;20082;-74
2021/09/01 04:52:09;;;;;;;0.70;0.70;;;;;;;16.65;57.58;101882.50;4961970;28;20030;-74
2021/09/01 04:54:35;;;;;;;0.80;0.80;;;;;;;16.64;57.49;101880.84;4996901;28;20032;-74
2021/09/01 04:57:01;;;;;;;0.68;0.65;;;;;;;16.61;57.16;101875.84;4994921;28;20065;-74
2021/09/01 04:59:26;;;;;;;1.75;1.02;;;;;;;16.60;57.73;101888.81;4979516;28;20033;-74
2021/09/01 05:01:51;;;;;;;0.65;0.55;;;;;;;16.59;57.83;101881.66;4960576;28;20023;-75
2021/09/01 05:04:17;;;;;;;0.63;0.50;;;;;;;16.58;57.54;101893.78;4978454;28;20073;-74
2021/09/01 05:06:42;;;;;;;0.65;0.65;;;;;;;16.55;57.85;101881.34;4996605;28;20078;-74
2021/09/01 05:09:08;;;;;;;0.98;0.50;;;;;;;16.55;57.57;101892.41;4977303;28;20098;-76
2021/09/01 05:11:33;;;;;;;0.30;0.30;;;;;;;16.57;58.02;101897.66;4978614;28;20057;-74
2021/09/01 05:13:58;;;;;;;0.32;0.30;;;;;;;16.57;58.19;101905.94;4969434;28;20434;-74
2021/09/01 05:16:24;;;;;;;0.50;0.40;;;;;;;16.56;58.00;101904.28;4979016;28;20056;-75
2021/09/01 05:18:49;;;;;;;0.50;0.47;;;;;;;16.57;58.11;101901.25;4989361;28;20053;-74
2021/09/01 05:21:17;;;;;;;0.85;0.50;;;;;;;16.57;57.75;101900.41;4970428;28;20034;-74
2021/09/01 05:23:47;;;;;;;0.55;0.40;;;;;;;16.55;58.20;101900.69;4985898;28;20030;-74
2021/09/01 05:26:17;;;;;;;0.28;0.28;;;;;;;16.55;58.06;101897.09;4989145;28;20034;-74
2021/09/01 05:28:44;;;;;;;1.55;0.30;;;;;;;16.56;58.45;101899.59;4990595;28;20100;-74
2021/09/01 05:31:09;;;;;;;0.85;0.35;;;;;;;16.56;58.17;101905.13;4984521;28;20022;-73
2021/09/01 05:33:37;;;;;;;1.45;0.38;;;;;;;16.55;58.40;101899.88;4959262;28;20035;-74
2021/09/01 05:36:05;;;;;;;0.43;0.22;;;;;;;16.53;58.70;101902.91;4992738;28;20104;-74
2021/09/01 05:38:33;;;;;;;0.45;0.30;;;;;;;16.51;58.54;101907.03;4964401;28;20038;-74
2021/09/01 05:41:00;;;;;;;0.25;0.22;;;;;;;16.51;58.71;101902.31;4962622;28;20030;-74
2021/09/01 05:43:26;;;;;;;0.20;0.20;;;;;;;16.54;58.32;101910.09;4959142;28;20026;-75
2021/09/01 05:45:52;;;;;;;0.57;0.57;;;;;;;16.55;58.68;101914.47;4984141;28;20023;-75
2021/09/01 05:48:22;;;;;;;0.47;0.45;;;;;;;16.53;59.05;101905.66;4985716;28;20174;-75
2021/09/01 05:50:54;;;;;;;0.43;0.43;;;;;;;16.56;58.48;101915.34;4988304;28;20034;-73
2021/09/01 05:53:20;;;;;;;0.55;0.55;;;;;;;16.58;58.28;101921.41;4994752;28;20041;-74
2021/09/01 05:55:50;;;;;;;0.77;0.77;;;;;;;16.61;58.35;101922.81;4992470;28;20499;-75
2021/09/01 05:58:18;;;;;;;0.60;0.60;;;;;;;16.63;58.83;101924.19;4995961;28;20031;-73
2021/09/01 06:00:44;;;;;;;0.47;0.47;;;;;;;16.63;58.57;101918.69;4977081;28;20026;-74
2021/09/01 06:03:20;;;;;;;0.25;0.25;;;;;;;16.65;58.55;101912.88;4973377;28;20041;-72
2021/09/01 06:05:46;;;;;;;0.55;0.40;;;;;;;16.66;58.76;101912.59;4985914;28;20030;-73
2021/09/01 06:08:13;;;;;;;0.73;0.68;;;;;;;16.68;58.94;101918.69;4975424;28;20085;-72
2021/09/01 06:10:39;;;;;;;1.38;0.30;;;;;;;16.71;58.52;101914.56;4972935;28;20030;-71
2021/09/01 06:13:10;;;;;;;0.30;0.30;;;;;;;16.75;58.88;101921.19;4985836;28;20070;-74
2021/09/01 06:15:41;;;;;;;0.32;0.32;;;;;;;16.77;58.88;101916.22;4992692;28;20037;-74
2021/09/01 06:18:08;;;;;;;1.23;0.38;;;;;;;16.75;58.81;101919.25;4989125;28;20030;-71
2021/09/01 06:20:35;;;;;;;0.35;0.35;;;;;;;16.76;58.79;101925.59;4984712;28;20031;-74
2021/09/01 06:23:02;;;;;;;0.25;0.20;;;;;;;16.73;59.09;101932.53;4965270;28;20069;-74
2021/09/01 06:25:28;;;;;;;0.50;0.30;;;;;;;16.75;58.83;101932.25;4985578;28;20026;-73
2021/09/01 06:27:53;;;;;;;0.28;0.20;;;;;;;16.76;59.42;101931.13;4976918;28;20026;-73
2021/09/01 06:30:20;;;;;;;0.40;0.30;;;;;;;16.76;59.24;101939.41;4967154;28;20057;-74
2021/09/01 06:32:45;;;;;;;0.63;0.35;;;;;;;16.79;59.09;101930.59;4983536;28;20022;-70
2021/09/01 06:35:12;;;;;;;0.30;0.30;;;;;;;16.80;59.30;101932.25;4986614;28;20384;-69
2021/09/01 06:37:39;;;;;;;1.05;0.32;;;;;;;16.81;59.68;101930.34;4989642;28;20064;-72
2021/09/01 06:40:06;;;;;;;0.40;0.40;;;;;;;16.79;59.53;101925.06;4987300;28;20182;-72
2021/09/01 06:42:31;;;;;;;0.30;0.30;;;;;;;16.81;59.64;101924.81;4981502;28;20388;-72
2021/09/01 06:44:57;;;;;;;2.28;0.57;;;;;;;16.87;59.83;101929.25;4991098;28;20031;-71
2021/09/01 06:47:22;;;;;;;0.63;0.57;;;;;;;16.91;59.51;101931.22;4985995;28;20030;-70
2021/09/01 06:49:48;;;;;;;0.50;0.20;;;;;;;16.95;59.94;101934.25;4957024;28;20034;-70
2021/09/01 06:52:13;;;;;;;0.38;0.28;;;;;;;17.01;59.17;101929.56;4982264;28;20038;-72
2021/09/01 06:54:39;;;;;;;0.30;0.30;;;;;;;17.08;59.75;101938.44;4942448;28;20034;-68
2021/09/01 06:57:04;;;;;;;0.20;0.20;;;;;;;17.13;59.09;101938.47;4972121;28;20030;-73
2021/09/01 06:59:30;;;;;;;0.50;0.50;;;;;;;17.15;59.54;101933.47;4991744;28;20026;-72
2021/09/01 07:01:55;;;;;;;0.32;0.30;;;;;;;17.19;59.47;101934.59;4982613;28;20036;-73
2021/09/01 07:04:22;;;;;;;1.27;0.50;;;;;;;17.22;59.77;101942.34;4982888;28;20046;-73
2021/09/01 07:06:47;;;;;;;1.27;0.60;;;;;;;17.24;59.62;101922.72;4984211;28;20055;-75
2021/09/01 07:09:13;;;;;;;1.48;0.80;;;;;;;17.28;59.77;101932.94;4987042;28;20026;-72
2021/09/01 07:11:38;;;;;;;0.75;0.75;;;;;;;17.31;59.90;101931.56;4984428;28;20034;-72
2021/09/01 07:14:03;;;;;;;0.80;0.80;;;;;;;17.34;59.72;101927.44;4989692;28;20117;-73
2021/09/01 07:16:29;;;;;;;1.52;1.30;;;;;;;17.37;59.49;101930.44;4993265;28;20061;-73
2021/09/01 07:18:54;;;;;;;1.20;1.10;;;;;;;17.40;60.19;101931.84;4986083;28;20637;-73
2021/09/01 07:21:20;;;;;;;1.50;1.30;;;;;;;17.47;59.72;101931.59;4994876;28;20392;-73
2021/09/01 07:23:46;;;;;;;1.35;1.25;;;;;;;17.53;59.73;101934.06;4984770;28;20030;-73
2021/09/01 07:26:12;;;;;;;1.23;1.13;;;;;;;17.61;59.28;101936.28;4989377;28;20113;-75
2021/09/01 07:28:38;;;;;;;1.77;1.63;;;;;;;17.72;59.49;101937.09;4990914;28;20030;-74
2021/09/01 07:31:05;;;;;;;1.40;1.30;;;;;;;17.80;59.15;101932.97;4986990;28;20030;-71
2021/09/01 07:33:30;;;;;;;2.95;1.48;;;;;;;17.89;58.54;101936.81;4973387;28;20384;-72
2021/09/01 07:35:56;;;;;;;0.70;0.70;;;;;;;18.01;59.07;101932.97;4986383;28;20042;-72
2021/09/01 07:38:21;;;;;;;0.82;0.82;;;;;;;18.13;58.34;101936.25;4984343;28;20037;-73
2021/09/01 07:40:47;;;;;;;1.77;1.50;;;;;;;18.22;58.18;101929.00;4990329;28;20090;-72
2021/09/01 07:43:12;;;;;;;1.25;1.15;;;;;;;18.25;58.07;101934.00;4946480;28;20038;-72
2021/09/01 07:45:38;;;;;;;4.65;1.52;;;;;;;18.28;58.24;101933.44;4989586;28;20030;-74
2021/09/01 07:48:04;;;;;;;1.92;1.45;;;;;;;18.33;58.04;101935.38;4981209;28;20384;-74
2021/09/01 07:50:40;;;;;;;2.10;1.90;;;;;;;18.37;57.63;101935.63;4978814;28;20034;-74
2021/09/01 07:53:16;;;;;;;;;;;;;;;;;;;;;
2021/09/01 07:55:42;;;;;;;1.20;1.15;;;;;;;18.60;57.61;101945.22;4991702;28;20021;-75
2021/09/01 07:58:08;;;;;;;1.02;0.93;;;;;;;18.78;57.70;101938.22;4989821;28;20117;-75
2021/09/01 08:00:33;;;;;;;2.10;1.27;;;;;;;18.94;57.21;101937.06;4988176;28;20019;-74
2021/09/01 08:02:58;;;;;;;1.48;1.38;;;;;;;19.08;56.61;101939.19;4969738;28;20454;-75
2021/09/01 08:05:24;;;;;;;1.15;1.10;;;;;;;19.16;55.89;101941.38;4984619;28;20501;-72
2021/09/01 08:07:49;;;;;;;1.30;1.20;;;;;;;19.26;56.12;101934.91;4972459;28;20057;-72
2021/09/01 08:10:16;;;;;;;3.80;2.08;;;;;;;19.36;55.86;101934.81;4988384;28;20066;-72
2021/09/01 08:12:42;;;;;;;2.15;1.42;;;;;;;19.38;55.22;101929.00;4985365;28;20408;-72
2021/09/01 08:15:09;;;;;;;2.03;1.42;;;;;;;19.47;55.25;101935.59;4976566;28;20116;-73
2021/09/01 08:17:35;;;;;;;1.20;1.10;;;;;;;19.58;54.84;101942.72;4974262;28;20114;-74
2021/09/01 08:20:00;;;;;;;0.82;0.82;;;;;;;19.74;55.20;101945.34;4989636;28;20109;-74
2021/09/01 08:22:25;;;;;;;1.52;1.00;;;;;;;19.90;54.46;101944.09;4975269;28;20092;-74
2021/09/01 08:24:51;;;;;;;1.52;1.40;;;;;;;20.03;54.57;101948.16;4986590;28;20050;-72
2021/09/01 08:27:17;;;;;;;1.48;1.23;;;;;;;20.13;54.18;101939.72;4989825;28;20421;-73
2021/09/01 08:29:42;;;;;;;1.35;0.70;;;;;;;20.26;53.91;101943.75;4995423;28;20081;-73
2021/09/01 08:32:09;;;;;;;1.50;1.35;;;;;;;20.39;53.65;101945.81;4992899;28;20057;-71
2021/09/01 08:34:35;;;;;;;1.30;1.20;;;;;;;20.48;52.95;101942.38;4990355;28;20423;-72
2021/09/01 08:37:02;;;;;;;1.10;1.02;;;;;;;20.62;52.78;101942.47;4973486;28;20102;-74
2021/09/01 08:39:27;;;;;;;0.60;0.50;;;;;;;20.80;52.76;101944.50;4985956;28;20499;-73
2021/09/01 08:41:54;;;;;;;1.05;0.98;;;;;;;21.01;52.15;101944.22;4974992;28;20034;-71
2021/09/01 08:44:19;;;;;;;1.60;1.17;;;;;;;21.21;51.75;101937.53;4983355;28;20038;-72
2021/09/01 08:46:51;;;;;;;0.63;0.57;;;;;;;21.44;51.62;101942.16;4989889;28;20045;-73
2021/09/01 08:49:20;;;;;;;1.60;1.35;;;;;;;21.62;50.22;101953.59;4974112;28;20369;-73
2021/09/01 08:51:49;;;;;;;1.65;1.55;;;;;;;21.73;50.46;101943.13;4974425;28;20025;-72
2021/09/01 08:54:15;;;;;;;0.98;0.98;;;;;;;21.88;50.00;101944.78;4974338;28;20061;-72
2021/09/01 08:56:42;;;;;;;1.85;1.48;;;;;;;22.03;49.17;101943.69;4991848;28;20113;-74
2021/09/01 08:59:07;;;;;;;1.50;1.40;;;;;;;22.18;48.86;101942.56;4991564;28;20039;-74
2021/09/01 09:01:52;;;;;;;3.00;1.00;;;;;;;22.39;48.72;101943.03;4993225;28;20500;-75
2021/09/01 09:04:24;;;;;;;1.40;1.20;;;;;;;22.49;47.88;101943.63;4986647;28;20483;-75
2021/09/01 09:06:55;;;;;;;1.80;0.90;;;;;;;22.65;47.76;101940.53;4974329;28;20104;-74
2021/09/01 09:09:22;;;;;;;0.88;0.80;;;;;;;22.79;47.17;101943.28;4977509;28;20528;-74
2021/09/01 09:11:51;;;;;;;1.05;1.00;;;;;;;22.85;46.52;101944.81;4974954;28;20030;-74
2021/09/01 09:14:27;;;;;;;1.40;1.30;;;;;;;22.93;47.03;101946.06;4972138;28;20038;-75
2021/09/01 09:17:02;;;;;;;0.82;0.82;;;;;;;23.01;46.39;101953.66;4973534;28;20057;-74
2021/09/01 09:20:02;;;;;;;1.02;1.02;;;;;;;23.16;46.42;101941.38;4988339;28;20412;-74
2021/09/01 09:22:34;;;;;;;1.25;1.15;;;;;;;23.26;45.76;101938.34;4984402;28;20073;-74
2021/09/01 09:25:25;;;;;;;2.85;1.42;;;;;;;23.39;45.70;101945.00;4995614;28;20026;-75
2021/09/01 09:27:53;;;;;;;1.67;1.58;;;;;;;23.47;45.23;101933.06;4989481;28;20033;-74
2021/09/01 09:30:41;;;;;;;1.65;1.55;;;;;;;23.64;44.81;101942.69;4988794;28;20084;-75
2021/09/01 09:33:09;;;;;;;1.55;1.45;;;;;;;23.60;44.16;101942.53;4990160;28;20041;-74
2021/09/01 09:36:01;;;;;;;2.00;1.00;;;;;;;23.81;44.95;101947.56;4993098;28;20058;-74
2021/09/01 09:38:45;;;;;;;2.08;1.10;;;;;;;23.96;43.92;101943.56;4975966;28;20128;-73
2021/09/01 09:41:21;;;;;;;2.35;1.00;;;;;;;24.16;44.24;101948.59;4975817;28;20026;-73
2021/09/01 09:43:47;;;;;;;;;;;;;;;24.66;43.57;101943.88;4986703;28;20026;-75
2021/09/01 09:46:14;;;;;;;1.65;1.35;;;;;;;24.71;42.65;101938.13;4985555;28;20309;-75
2021/09/01 09:48:44;;;;;;;1.08;1.00;;;;;;;24.87;42.30;101942.09;4994555;28;20030;-74
2021/09/01 09:51:19;;;;;;;1.90;1.30;;;;;;;24.92;40.75;101924.31;4981233;28;20093;-74
2021/09/01 09:53:46;;;;;;;1.42;0.82;;;;;;;24.87;41.10;101922.53;4973085;28;20030;-74
2021/09/01 09:56:19;;;;;;;1.25;1.15;;;;;;;24.81;40.13;101918.25;4991966;28;20033;-74
2021/09/01 09:58:57;;;;;;;1.90;0.82;;;;;;;24.88;40.24;101924.16;4989244;28;20042;-74
2021/09/01 10:01:25;;;;;;;1.10;1.10;;;;;;;24.91;39.32;101922.66;4979665;28;20034;-73
2021/09/01 10:03:53;;;;;;;1.38;1.13;;;;;;;24.91;39.02;101917.06;4986411;28;20030;-75
2021/09/01 10:06:20;;;;;;;4.40;0.73;;;;;;;24.99;39.60;101929.44;4994268;28;20493;-73
2021/09/01 10:08:53;;;;;;;0.80;0.80;;;;;;;25.19;39.29;101934.38;4981368;28;20034;-74
2021/09/01 10:11:20;;;;;;;1.85;0.90;;;;;;;25.35;38.55;101931.09;4962503;28;20040;-72
2021/09/01 10:13:49;;;;;;;0.82;0.82;;;;;;;25.47;38.48;101924.84;4991258;28;20030;-76
2021/09/01 10:16:22;;;;;;;1.05;1.05;;;;;;;25.68;37.25;101922.16;4975015;28;20073;-74
2021/09/01 10:19:01;;;;;;;1.15;0.90;;;;;;;25.65;37.17;101928.44;4975805;28;20030;-74
2021/09/01 10:21:30;;;;;;;1.73;0.88;;;;;;;25.54;37.20;101917.59;4990216;28;20046;-75
2021/09/01 10:23:55;;;;;;;0.88;0.88;;;;;;;25.48;37.88;101912.47;4989551;28;20066;-73
2021/09/01 10:26:31;;;;;;;1.60;0.88;;;;;;;25.53;36.68;101927.13;4991211;28;20085;-75
2021/09/01 10:29:01;;;;;;;1.02;1.02;;;;;;;25.67;37.28;101926.94;4987836;28;20038;-77
2021/09/01 10:31:35;;;;;;;1.02;1.00;;;;;;;25.83;36.79;101929.19;4986151;28;20034;-75
2021/09/01 10:34:20;;;;;;;0.90;0.90;;;;;;;25.85;36.19;101916.50;4973883;28;20030;-76
2021/09/01 10:36:50;;;;;;;;;;;;;;;25.71;36.49;101929.91;4975588;28;20042;-75
2021/09/01 10:39:28;;;;;;;0.73;0.73;;;;;;;25.34;36.32;101929.47;4995862;28;19922;-74
2021/09/01 10:41:53;;;;;;;1.13;0.93;;;;;;;25.03;36.68;101919.25;4991552;28;20389;-74
2021/09/01 10:44:48;;;;;;;0.90;0.90;;;;;;;24.87;37.36;101921.72;4983015;28;20038;-73
2021/09/01 10:47:16;;;;;;;0.73;0.73;;;;;;;24.86;37.26;101908.84;4982390;28;20031;-74
2021/09/01 10:50:07;;;;;;;1.55;1.00;;;;;;;25.31;37.57;101913.34;4987872;28;20066;-74
2021/09/01 10:52:54;;;;;;;1.90;1.80;;;;;;;25.69;36.03;101919.03;4987329;28;20117;-72
2021/09/01 10:55:20;;;;;;;3.58;3.28;;;;;;;25.84;36.36;101914.84;4970756;28;20834;-74
2021/09/01 10:58:21;;;;;;;3.30;3.00;;;;;;;25.87;35.99;101916.97;4986978;28;20105;-73
2021/09/01 11:00:58;;;;;;;3.15;2.92;;;;;;;25.63;35.50;101913.91;4982368;28;20138;-74
2021/09/01 11:03:41;;;;;;;2.90;2.63;;;;;;;25.38;36.32;101924.88;4979243;28;20634;-75
2021/09/01 11:06:21;;;;;;;3.20;3.00;;;;;;;25.17;36.49;101919.88;4964073;28;20054;-73
2021/09/01 11:08:59;;;;;;;2.35;2.25;;;;;;;25.24;37.27;101925.00;4987357;28;20046;-74
2021/09/01 11:11:48;;;;;;;2.05;1.95;;;;;;;25.64;37.30;101921.19;4988648;28;20030;-73
2021/09/01 11:14:32;;;;;;;3.03;1.55;;;;;;;26.11;36.78;101912.81;4987970;28;20018;-74
2021/09/01 11:16:58;;;;;;;2.08;1.88;;;;;;;26.32;35.82;101912.06;4986545;28;20066;-74
2021/09/01 11:19:24;;;;;;;1.40;1.30;;;;;;;26.54;35.44;101905.34;4983687;28;20080;-75
2021/09/01 11:21:55;;;;;;;2.63;1.80;;;;;;;26.68;34.79;101897.50;4967332;28;20042;-73
2021/09/01 11:24:21;;;;;;;1.63;1.52;;;;;;;26.86;34.71;101908.59;4965830;28;20031;-74
2021/09/01 11:26:54;;;;;;;1.30;1.20;;;;;;;27.16;35.02;101895.28;4988651;28;20041;-73
2021/09/01 11:29:29;;;;;;;1.00;1.00;;;;;;;28.39;35.30;101904.00;4985534;28;20057;-74
2021/09/01 11:31:55;;;;;;;2.05;1.30;;;;;;;29.00;33.64;101902.28;4967490;28;20018;-74
2021/09/01 11:34:20;;;;;;;1.15;1.10;;;;;;;29.37;32.57;101910.59;4986159;28;20503;-75
2021/09/01 11:36:46;;;;;;;2.35;1.35;;;;;;;29.36;30.99;101903.31;4992551;28;20046;-73